Elizabethtown, New York
Current Conditions -  °F | °C
As of 12:54 AM on Thursday 23 Oct 2014 (Local Time) from KBTV Reporting Station
Overcast Overcast  
Wind Chill: 40°   Ceiling: 3300
Heat Index: 47°   Visibility: 10mi
Dew Point: 37°   Wind: 17mph
Humidity: 68%   Direction: 340°NNW
Pressure: 30.07"   Gusts: NA
Location:  44.22°N, 73.59°W
Report Text: KBTV 230454Z 34015KT 10SM OVC033 08/03 A3007 RMK AO2 SLP183 T00830028 401170078
Loading
Personal Weather Stations






























Interactive Weather Map
Tropical Storm Tracking
New forecast layout! Learn more

10-Day Weather Forecast

Advertisements
Track Severe Weather on mobile